Time;durP1;ratioP1;P1;durP2;ratioP2;P2;SDS_P1;SDS_P2;PMS_P1;PMS_P2;Temp;Humidity;BMP_temperature;BMP_pressure;BME280_temperature;BME280_humidity;BME280_pressure;Samples;Min_cycle;Max_cycle;Signal;HPM_P1;HPM_P2
2022/10/30 00:04:10;;;;;;;10.90;6.90;;;22.80;76.10;;;;;;213315;1288;22591;-59
2022/10/30 00:09:19;;;;;;;12.10;6.60;;;22.80;76.40;;;;;;213632;1288;22617;-60
2022/10/30 00:14:22;;;;;;;9.50;6.90;;;22.70;75.90;;;;;;213648;1288;23127;-59
2022/10/30 00:19:26;;;;;;;9.30;6.60;;;22.70;76.00;;;;;;213484;1288;22519;-59
2022/10/30 00:24:29;;;;;;;9.00;6.60;;;22.70;75.90;;;;;;213676;1281;25980;-59
2022/10/30 00:29:33;;;;;;;10.10;7.20;;;22.70;76.10;;;;;;213395;1289;22880;-59
2022/10/30 00:34:37;;;;;;;11.20;7.10;;;22.70;76.00;;;;;;213414;1288;22480;-58
2022/10/30 00:39:42;;;;;;;9.90;7.00;;;22.60;75.80;;;;;;217561;1284;22821;-59
2022/10/30 00:44:49;;;;;;;11.50;6.90;;;22.60;75.90;;;;;;213439;1295;25395;-59
2022/10/30 00:50:01;;;;;;;10.50;7.10;;;22.70;75.90;;;;;;213629;1286;23240;-59
2022/10/30 00:55:10;;;;;;;10.80;6.30;;;22.60;75.70;;;;;;213563;1288;22486;-59
2022/10/30 01:00:16;;;;;;;8.00;6.00;;;22.60;75.80;;;;;;213297;1286;26709;-59
2022/10/30 01:05:23;;;;;;;9.40;6.40;;;22.60;75.90;;;;;;213340;1295;24287;-59
2022/10/30 01:10:27;;;;;;;9.00;6.80;;;22.60;75.90;;;;;;213363;1288;22499;-59
2022/10/30 01:15:37;;;;;;;10.00;7.00;;;22.60;76.20;;;;;;213329;1288;23883;-60
2022/10/30 01:21:00;;;;;;;8.60;6.00;;;22.60;75.80;;;;;;213477;1288;22831;-59
2022/10/30 01:26:25;;;;;;;11.70;6.70;;;22.60;75.90;;;;;;213303;1288;24274;-59
2022/10/30 01:31:41;;;;;;;12.20;6.20;;;22.60;76.50;;;;;;213276;1288;22485;-59
2022/10/30 01:37:14;;;;;;;12.40;6.60;;;22.50;76.20;;;;;;213442;1281;24247;-59
2022/10/30 01:42:43;;;;;;;10.00;6.10;;;22.50;75.90;;;;;;213490;1289;22577;-59
2022/10/30 01:48:02;;;;;;;8.40;6.20;;;22.50;76.30;;;;;;213396;1296;23920;-58
2022/10/30 01:53:42;;;;;;;9.70;6.50;;;22.50;75.90;;;;;;213531;1284;22484;-59
2022/10/30 01:59:16;;;;;;;8.40;5.90;;;22.50;76.50;;;;;;213284;1281;23678;-59
2022/10/30 02:04:21;;;;;;;7.30;5.70;;;22.50;76.20;;;;;;213260;1281;22494;-60
2022/10/30 02:09:25;;;;;;;8.30;5.80;;;22.50;76.30;;;;;;213245;1283;22549;-60
2022/10/30 02:14:34;;;;;;;8.20;5.60;;;22.40;76.70;;;;;;213261;1286;22733;-59
2022/10/30 02:19:39;;;;;;;8.70;6.20;;;22.40;76.50;;;;;;213288;1287;22488;-59
2022/10/30 02:24:43;;;;;;;10.10;6.80;;;22.40;76.10;;;;;;213019;1293;25607;-59
2022/10/30 02:29:48;;;;;;;8.40;6.60;;;22.40;76.40;;;;;;216815;1292;23482;-60
2022/10/30 02:34:51;;;;;;;8.20;6.00;;;22.40;76.50;;;;;;213434;1288;23575;-60
2022/10/30 02:39:55;;;;;;;8.50;6.50;;;22.40;76.20;;;;;;213592;1280;22544;-59
2022/10/30 02:44:58;;;;;;;7.70;6.20;;;22.30;76.60;;;;;;213398;1288;22460;-60
2022/10/30 02:50:02;;;;;;;8.40;5.80;;;22.30;76.30;;;;;;213605;1280;25457;-59
2022/10/30 02:55:06;;;;;;;8.90;6.30;;;22.30;76.20;;;;;;213650;1280;22576;-59
2022/10/30 03:00:11;;;;;;;8.90;6.20;;;22.30;76.70;;;;;;213637;1281;22481;-60
2022/10/30 03:05:15;;;;;;;8.60;6.00;;;22.30;76.60;;;;;;213596;1281;24242;-59
2022/10/30 03:10:19;;;;;;;7.50;6.20;;;22.30;76.20;;;;;;213506;1289;22483;-60
2022/10/30 03:15:23;;;;;;;7.40;5.90;;;22.30;76.30;;;;;;213641;1288;22472;-58
2022/10/30 03:20:26;;;;;;;9.10;5.80;;;22.30;76.80;;;;;;213506;1281;24248;-60
2022/10/30 03:25:30;;;;;;;8.10;5.90;;;22.30;76.40;;;;;;213613;1288;22466;-59
2022/10/30 03:30:33;;;;;;;8.40;6.00;;;22.30;76.30;;;;;;213517;1288;26580;-59
2022/10/30 03:35:39;;;;;;;7.90;5.70;;;22.30;76.30;;;;;;213766;1286;25504;-59
2022/10/30 03:40:43;;;;;;;7.10;5.70;;;22.20;76.20;;;;;;213625;1283;22782;-58
2022/10/30 03:45:48;;;;;;;7.50;5.80;;;22.20;76.50;;;;;;213660;1283;24007;-61
2022/10/30 03:50:54;;;;;;;8.20;6.30;;;22.20;76.20;;;;;;213475;1286;22477;-59
2022/10/30 03:55:59;;;;;;;7.70;6.10;;;22.20;76.50;;;;;;213621;1288;24353;-60
2022/10/30 04:01:09;;;;;;;8.70;6.20;;;22.20;76.20;;;;;;213692;1280;22486;-60
2022/10/30 04:06:15;;;;;;;9.20;6.10;;;22.20;76.20;;;;;;213484;1287;25610;-60
2022/10/30 04:11:19;;;;;;;8.60;6.20;;;22.20;76.20;;;;;;213533;1287;25209;-59
2022/10/30 04:16:22;;;;;;;7.70;5.40;;;22.20;76.20;;;;;;213471;1281;23144;-60
2022/10/30 04:21:26;;;;;;;8.00;5.60;;;22.20;76.30;;;;;;213683;1280;25253;-59
2022/10/30 04:26:30;;;;;;;9.80;6.30;;;22.10;76.20;;;;;;213642;1288;24254;-60
2022/10/30 04:31:33;;;;;;;6.90;5.20;;;22.10;76.10;;;;;;213714;1280;22671;-58
2022/10/30 04:36:37;;;;;;;8.20;6.10;;;22.10;76.30;;;;;;213691;1281;22498;-60
2022/10/30 04:41:40;;;;;;;8.00;6.10;;;22.10;75.70;;;;;;213549;1288;23196;-60
2022/10/30 04:46:51;;;;;;;7.80;5.90;;;22.10;76.10;;;;;;213534;1287;24020;-60
2022/10/30 04:51:55;;;;;;;9.30;6.10;;;22.00;76.10;;;;;;213431;1302;23872;-60
2022/10/30 04:56:58;;;;;;;9.10;6.30;;;22.00;76.10;;;;;;213681;1281;22611;-60
2022/10/30 05:02:02;;;;;;;7.00;5.50;;;22.00;76.50;;;;;;213481;1288;23894;-61
2022/10/30 05:07:06;;;;;;;8.10;6.10;;;22.00;76.10;;;;;;213457;1286;22709;-59
2022/10/30 05:12:10;;;;;;;6.90;5.20;;;22.00;76.00;;;;;;213547;1280;24245;-60
2022/10/30 05:17:23;;;;;;;7.60;5.20;;;22.00;76.00;;;;;;213690;1280;22604;-58
2022/10/30 05:22:26;;;;;;;9.10;5.50;;;22.00;76.40;;;;;;213414;1280;25210;-60
2022/10/30 05:27:30;;;;;;;9.40;5.30;;;22.00;76.20;;;;;;213797;1280;24257;-60
2022/10/30 05:32:34;;;;;;;8.10;6.10;;;22.00;76.10;;;;;;213464;1290;22496;-56
2022/10/30 05:37:37;;;;;;;7.60;5.70;;;22.00;76.50;;;;;;213377;1280;24386;-60
2022/10/30 05:42:47;;;;;;;8.20;6.00;;;21.90;76.00;;;;;;213387;1288;22507;-58
2022/10/30 05:47:59;;;;;;;9.40;6.50;;;22.00;76.10;;;;;;215008;1288;25202;-59
2022/10/30 05:53:11;;;;;;;7.00;5.40;;;21.90;76.00;;;;;;213125;1287;23955;-59
2022/10/30 05:58:16;;;;;;;7.10;5.40;;;21.90;75.90;;;;;;213495;1296;26460;-60
2022/10/30 06:03:20;;;;;;;7.20;5.30;;;21.90;75.90;;;;;;213642;1281;25430;-59
2022/10/30 06:08:24;;;;;;;8.10;5.90;;;21.90;76.10;;;;;;213472;1281;184037;-58
2022/10/30 06:13:31;;;;;;;9.90;6.30;;;21.90;76.00;;;;;;213521;1287;24223;-60
2022/10/30 06:18:46;;;;;;;8.10;6.10;;;21.90;76.00;;;;;;213676;1286;22490;-59
2022/10/30 06:23:49;;;;;;;7.50;5.50;;;21.90;76.10;;;;;;213374;1290;24151;-59
2022/10/30 06:29:29;;;;;;;7.90;6.00;;;21.90;76.00;;;;;;212965;1290;22532;-59
2022/10/30 06:34:33;;;;;;;6.60;5.30;;;21.90;76.10;;;;;;213535;1280;24987;-59
2022/10/30 06:39:38;;;;;;;8.50;5.60;;;21.90;75.90;;;;;;213690;1281;23156;-60
2022/10/30 06:45:06;;;;;;;8.60;5.50;;;21.90;75.70;;;;;;213672;1281;22538;-60
2022/10/30 06:50:14;;;;;;;8.00;6.50;;;22.00;76.00;;;;;;213482;1285;24231;-60
2022/10/30 06:55:17;;;;;;;10.40;5.20;;;22.00;75.30;;;;;;213565;1280;24268;-59
2022/10/30 07:00:44;;;;;;;9.60;5.30;;;22.00;75.20;;;;;;213429;1282;24122;-59
2022/10/30 07:06:25;;;;;;;7.10;5.00;;;22.00;75.00;;;;;;213490;1288;22489;-60
2022/10/30 07:11:29;;;;;;;7.70;5.50;;;22.00;74.80;;;;;;213615;1287;22671;-60
2022/10/30 07:16:38;;;;;;;6.90;5.30;;;22.00;75.10;;;;;;213580;1288;22745;-60
2022/10/30 07:21:41;;;;;;;8.50;6.00;;;22.00;74.70;;;;;;213592;1281;22488;-61
2022/10/30 07:26:45;;;;;;;9.30;5.20;;;22.00;74.60;;;;;;213411;1281;24276;-61
2022/10/30 07:32:15;;;;;;;7.10;5.50;;;22.10;74.50;;;;;;213542;1287;22623;-61
2022/10/30 07:37:30;;;;;;;7.20;5.10;;;22.10;74.40;;;;;;213421;1303;22470;-60
2022/10/30 07:42:40;;;;;;;8.20;5.40;;;22.20;74.30;;;;;;213515;1280;24801;-60
2022/10/30 07:48:00;;;;;;;7.60;5.50;;;22.20;74.30;;;;;;213527;1288;25421;-59
2022/10/30 07:53:25;;;;;;;8.50;5.20;;;22.20;74.40;;;;;;213597;1288;22721;-60
2022/10/30 07:58:31;;;;;;;9.00;4.90;;;22.10;74.40;;;;;;213459;1286;24376;-61
2022/10/30 08:03:59;;;;;;;7.50;4.70;;;22.10;74.70;;;;;;213479;1287;22534;-59
2022/10/30 08:09:08;;;;;;;8.50;5.10;;;22.10;74.60;;;;;;213486;1280;22501;-61
2022/10/30 08:14:12;;;;;;;7.40;5.50;;;22.20;75.10;;;;;;213422;1286;22494;-59
2022/10/30 08:19:17;;;;;;;7.50;4.70;;;22.10;74.60;;;;;;213494;1288;22730;-59
2022/10/30 08:24:23;;;;;;;6.10;4.60;;;22.10;74.60;;;;;;213600;1280;22488;-60
2022/10/30 08:29:27;;;;;;;9.40;5.10;;;22.10;75.20;;;;;;213453;1280;25372;-60
2022/10/30 08:34:34;;;;;;;7.10;4.40;;;22.10;74.70;;;;;;213525;1281;25195;-60
2022/10/30 08:39:43;;;;;;;8.90;4.90;;;22.10;74.90;;;;;;213505;1280;22506;-60
2022/10/30 08:45:10;;;;;;;6.80;5.10;;;22.10;74.50;;;;;;213470;1286;22556;-59
2022/10/30 08:50:47;;;;;;;6.60;4.40;;;22.10;75.20;;;;;;213435;1281;24228;-62
2022/10/30 08:56:01;;;;;;;7.90;5.10;;;22.30;75.40;;;;;;213342;1292;22733;-62
2022/10/30 09:01:19;;;;;;;8.80;5.00;;;22.30;75.00;;;;;;213294;1288;22482;-60
2022/10/30 09:06:44;;;;;;;8.00;4.70;;;22.40;75.00;;;;;;213085;1288;26685;-62
2022/10/30 09:12:10;;;;;;;14.40;5.90;;;22.40;74.70;;;;;;213047;1302;22484;-62
2022/10/30 09:17:19;;;;;;;17.30;7.10;;;22.60;75.90;;;;;;213379;1288;23618;-66
2022/10/30 09:22:24;;;;;;;7.60;5.10;;;22.70;78.20;;;;;;213397;1281;25323;-64
2022/10/30 09:27:34;;;;;;;13.40;5.90;;;22.70;75.80;;;;;;213453;1287;24392;-61
2022/10/30 09:33:01;;;;;;;15.80;6.00;;;22.70;74.60;;;;;;213537;1280;23945;-59
2022/10/30 09:38:33;;;;;;;16.00;5.20;;;22.70;74.80;;;;;;213657;1287;24284;-61
2022/10/30 09:44:07;;;;;;;9.60;5.40;;;22.80;74.90;;;;;;213557;1287;25523;-60
2022/10/30 09:49:41;;;;;;;9.80;6.10;;;22.80;74.70;;;;;;213499;1288;22485;-60
2022/10/30 09:55:25;;;;;;;10.30;5.70;;;22.90;75.10;;;;;;213582;1288;23629;-60
2022/10/30 10:01:05;;;;;;;9.50;6.40;;;23.00;74.20;;;;;;213640;1283;23862;-59
2022/10/30 10:06:25;;;;;;;7.10;5.50;;;23.10;74.00;;;;;;213393;1288;22466;-61
2022/10/30 10:12:12;;;;;;;11.50;6.60;;;23.10;74.40;;;;;;213205;1288;22547;-63
2022/10/30 10:17:44;;;;;;;10.60;6.00;;;23.20;73.80;;;;;;213185;1288;23098;-61
2022/10/30 10:22:58;;;;;;;13.30;5.80;;;23.30;73.40;;;;;;213350;1283;24285;-61
2022/10/30 10:28:52;;;;;;;10.10;5.90;;;23.40;72.80;;;;;;213502;1283;22485;-61
2022/10/30 10:35:15;;;;;;;11.20;5.90;;;23.40;72.50;;;;;;213489;1288;25530;-62
2022/10/30 10:41:04;;;;;;;9.40;5.80;;;23.60;72.10;;;;;;213289;1280;24246;-61
2022/10/30 10:47:01;;;;;;;12.80;5.60;;;23.70;71.60;;;;;;213500;1288;24289;-60
2022/10/30 10:52:59;;;;;;;9.90;5.40;;;23.70;71.70;;;;;;213407;1288;22480;-62
2022/10/30 10:58:42;;;;;;;12.50;6.60;;;23.80;72.00;;;;;;213497;1288;22958;-58
2022/10/30 11:04:38;;;;;;;12.30;5.20;;;23.80;71.40;;;;;;213691;1288;24362;-59
2022/10/30 11:10:45;;;;;;;8.20;5.20;;;23.80;72.00;;;;;;213455;1290;22466;-60
2022/10/30 11:16:28;;;;;;;10.40;5.50;;;23.90;71.80;;;;;;213383;1285;22470;-57
2022/10/30 11:21:57;;;;;;;9.10;5.40;;;24.00;71.80;;;;;;213384;1287;22484;-60
2022/10/30 11:27:27;;;;;;;10.30;6.10;;;24.00;71.80;;;;;;213514;1283;24248;-60
2022/10/30 11:32:33;;;;;;;9.60;6.10;;;24.00;71.60;;;;;;213519;1283;22940;-60
2022/10/30 11:37:46;;;;;;;12.40;5.90;;;24.10;71.40;;;;;;213493;1284;23869;-60
2022/10/30 11:43:15;;;;;;;14.30;5.50;;;24.20;70.80;;;;;;213328;1284;22478;-59
2022/10/30 11:48:30;;;;;;;7.40;5.30;;;24.20;70.80;;;;;;213389;1287;22538;-60
2022/10/30 11:53:47;;;;;;;10.20;5.10;;;24.20;70.30;;;;;;213373;1288;26601;-61
2022/10/30 11:58:54;;;;;;;14.40;5.10;;;24.20;69.00;;;;;;217773;1289;22881;-62
2022/10/30 12:04:14;;;;;;;9.20;5.50;;;24.30;70.00;;;;;;213450;1288;25361;-60
2022/10/30 12:09:24;;;;;;;9.80;5.80;;;24.20;70.10;;;;;;213667;1288;23995;-60
2022/10/30 12:14:33;;;;;;;9.20;5.60;;;24.10;69.40;;;;;;213546;1288;22558;-60
2022/10/30 12:19:45;;;;;;;10.20;5.10;;;24.10;70.10;;;;;;213545;1286;25874;-61
2022/10/30 12:24:52;;;;;;;9.90;5.10;;;24.10;69.40;;;;;;213417;1288;25654;-60
2022/10/30 12:30:18;;;;;;;9.70;5.20;;;24.10;69.30;;;;;;213438;1304;22480;-60
2022/10/30 12:35:28;;;;;;;11.70;6.00;;;24.10;69.30;;;;;;213590;1287;23458;-60
2022/10/30 12:40:41;;;;;;;10.50;5.20;;;24.10;68.80;;;;;;213335;1291;22478;-60
2022/10/30 12:45:50;;;;;;;11.80;5.60;;;24.10;68.80;;;;;;213476;1304;23060;-60
2022/10/30 12:51:14;;;;;;;8.70;5.20;;;24.10;68.70;;;;;;213604;1291;24274;-60
2022/10/30 12:56:31;;;;;;;7.50;5.10;;;24.10;68.60;;;;;;213518;1288;23317;-61
2022/10/30 13:01:50;;;;;;;8.80;5.00;;;24.00;68.60;;;;;;213590;1290;24316;-61
2022/10/30 13:07:17;;;;;;;6.80;5.10;;;24.00;68.60;;;;;;213631;1300;25910;-61
2022/10/30 13:12:36;;;;;;;7.30;5.00;;;24.00;68.40;;;;;;213260;1303;22485;-61
2022/10/30 13:17:42;;;;;;;9.50;5.50;;;24.00;68.30;;;;;;213462;1287;22919;-61
2022/10/30 13:22:54;;;;;;;10.10;5.50;;;24.10;68.70;;;;;;213459;1292;25322;-61
2022/10/30 13:28:20;;;;;;;7.20;5.20;;;24.10;68.30;;;;;;213391;1304;23888;-61
2022/10/30 13:34:11;;;;;;;6.30;5.10;;;24.10;68.10;;;;;;213489;1293;22505;-59
2022/10/30 13:39:30;;;;;;;9.20;5.60;;;24.10;67.90;;;;;;213622;1294;22504;-62
2022/10/30 13:44:55;;;;;;;7.80;5.30;;;24.10;68.40;;;;;;213591;1288;25703;-59
2022/10/30 13:50:36;;;;;;;6.80;4.80;;;24.10;68.00;;;;;;213420;1293;25549;-60
2022/10/30 13:55:41;;;;;;;7.20;4.50;;;24.00;67.90;;;;;;213498;1288;22705;-59
2022/10/30 14:01:04;;;;;;;7.50;5.20;;;24.00;67.90;;;;;;213381;1297;22536;-60
2022/10/30 14:06:15;;;;;;;7.70;5.20;;;24.00;67.80;;;;;;213491;1311;25922;-60
2022/10/30 14:11:19;;;;;;;8.00;5.50;;;23.90;67.90;;;;;;213522;1291;25215;-60
2022/10/30 14:17:14;;;;;;;8.50;5.20;;;23.90;67.90;;;;;;213566;1291;24245;-61
2022/10/30 14:22:24;;;;;;;7.20;4.90;;;23.80;67.80;;;;;;213379;1288;23868;-60
2022/10/30 14:27:30;;;;;;;7.70;5.20;;;23.80;67.90;;;;;;213638;1284;24354;-61
2022/10/30 14:32:37;;;;;;;6.80;5.00;;;23.80;67.90;;;;;;213540;1295;24255;-60
2022/10/30 14:37:40;;;;;;;7.70;5.40;;;23.70;68.20;;;;;;213553;1293;24452;-60
2022/10/30 14:42:52;;;;;;;9.50;5.60;;;23.70;68.20;;;;;;213479;1296;22490;-60
2022/10/30 14:48:18;;;;;;;9.70;6.20;;;23.70;68.30;;;;;;213719;1284;24248;-61
2022/10/30 14:53:41;;;;;;;8.00;5.30;;;23.70;68.20;;;;;;213476;1300;22467;-60
2022/10/30 14:59:08;;;;;;;10.30;5.80;;;23.60;68.20;;;;;;213694;1287;22531;-60
2022/10/30 15:04:44;;;;;;;6.90;5.40;;;23.60;68.70;;;;;;213782;1284;22480;-60
2022/10/30 15:10:07;;;;;;;12.90;5.30;;;23.60;68.60;;;;;;213607;1291;22466;-61
2022/10/30 15:15:18;;;;;;;13.20;5.90;;;23.60;68.10;;;;;;213530;1291;23527;-60
2022/10/30 15:20:26;;;;;;;16.80;6.00;;;23.60;69.60;;;;;;213692;1283;25294;-60
2022/10/30 15:25:54;;;;;;;11.80;6.20;;;23.70;71.10;;;;;;213590;1291;25544;-61
2022/10/30 15:30:59;;;;;;;15.50;6.40;;;23.70;70.90;;;;;;213601;1291;22472;-59
2022/10/30 15:36:15;;;;;;;13.70;7.90;;;23.70;71.60;;;;;;213555;1283;25367;-61
2022/10/30 15:41:19;;;;;;;14.30;7.90;;;23.70;71.00;;;;;;213519;1291;23888;-61
2022/10/30 15:46:23;;;;;;;13.00;8.80;;;23.60;70.90;;;;;;213486;1291;22506;-60
2022/10/30 15:51:29;;;;;;;14.10;8.40;;;23.70;71.50;;;;;;213395;1290;25535;-62
2022/10/30 15:56:37;;;;;;;15.80;8.70;;;23.70;71.10;;;;;;213557;1284;22553;-61
2022/10/30 16:02:17;;;;;;;14.40;8.40;;;23.70;71.10;;;;;;213384;1284;22672;-63
2022/10/30 16:07:24;;;;;;;13.70;7.80;;;23.70;71.60;;;;;;213502;1290;25941;-62
2022/10/30 16:12:31;;;;;;;17.50;8.90;;;23.70;71.30;;;;;;213476;1283;24380;-61
2022/10/30 16:17:35;;;;;;;16.40;8.20;;;23.70;71.50;;;;;;213479;1286;25530;-61
2022/10/30 16:22:39;;;;;;;15.40;8.10;;;23.70;71.80;;;;;;213539;1286;22518;-61
2022/10/30 16:27:45;;;;;;;11.20;6.90;;;23.60;72.10;;;;;;213663;1288;25451;-59
2022/10/30 16:33:15;;;;;;;13.70;7.20;;;23.80;71.80;;;;;;213593;1284;22477;-58
2022/10/30 16:38:38;;;;;;;15.00;7.30;;;23.70;71.70;;;;;;213539;1288;22484;-59
2022/10/30 16:44:06;;;;;;;16.00;7.80;;;23.70;71.80;;;;;;213286;1286;23207;-61
2022/10/30 16:49:22;;;;;;;14.60;8.00;;;23.60;72.10;;;;;;213286;1286;24185;-61
2022/10/30 16:54:30;;;;;;;21.70;8.00;;;23.70;72.40;;;;;;213605;1286;24291;-59
2022/10/30 16:59:42;;;;;;;15.50;8.00;;;23.60;72.00;;;;;;213644;1284;24247;-57
2022/10/30 17:04:53;;;;;;;17.00;7.30;;;23.70;72.00;;;;;;213463;1288;22501;-58
2022/10/30 17:10:00;;;;;;;;;;;23.60;72.20;;;;;;213400;1287;25324;-59
2022/10/30 17:15:14;;;;;;;16.50;7.80;;;23.60;71.80;;;;;;213453;1284;25132;-58
2022/10/30 17:20:18;;;;;;;19.00;8.20;;;23.60;71.60;;;;;;213472;1288;25546;-59
2022/10/30 17:25:33;;;;;;;13.90;8.00;;;23.60;71.90;;;;;;213633;1284;24514;-59
2022/10/30 17:30:44;;;;;;;17.30;8.60;;;23.60;72.00;;;;;;213308;1280;23260;-58
2022/10/30 17:35:48;;;;;;;15.90;7.40;;;23.60;71.70;;;;;;213387;1293;22486;-59
2022/10/30 17:40:51;;;;;;;13.90;7.70;;;23.70;71.60;;;;;;213628;1296;24244;-59
2022/10/30 17:45:56;;;;;;;11.80;8.20;;;23.70;71.60;;;;;;213406;1283;24128;-58
2022/10/30 17:50:59;;;;;;;15.70;7.60;;;23.60;71.20;;;;;;213422;1287;22497;-56
2022/10/30 17:56:16;;;;;;;15.30;7.50;;;23.60;71.60;;;;;;213316;1287;22480;-57
2022/10/30 18:01:23;;;;;;;19.70;7.90;;;23.60;71.60;;;;;;213416;1287;24243;-55
2022/10/30 18:06:27;;;;;;;21.90;8.30;;;23.60;71.70;;;;;;216593;1287;159693;-59
2022/10/30 18:11:31;;;;;;;21.80;8.40;;;23.60;71.60;;;;;;213609;1280;24283;-60
2022/10/30 18:16:35;;;;;;;13.30;7.90;;;23.60;71.40;;;;;;213275;1283;24036;-61
2022/10/30 18:21:38;;;;;;;11.40;8.40;;;23.60;71.50;;;;;;213172;1288;22479;-58
2022/10/30 18:26:42;;;;;;;12.90;8.20;;;23.60;71.60;;;;;;213302;1284;22524;-59
2022/10/30 18:31:59;;;;;;;14.50;8.40;;;23.50;71.40;;;;;;213318;1288;22487;-59
2022/10/30 18:37:22;;;;;;;16.90;9.20;;;23.60;71.20;;;;;;213358;1287;22610;-57
2022/10/30 18:42:38;;;;;;;18.80;9.30;;;23.60;71.30;;;;;;213503;1284;22533;-59
2022/10/30 18:47:42;;;;;;;14.70;9.40;;;23.50;71.00;;;;;;213228;1288;22492;-58
2022/10/30 18:52:46;;;;;;;14.40;8.80;;;23.50;70.90;;;;;;213417;1280;22714;-61
2022/10/30 18:57:51;;;;;;;14.10;9.00;;;23.50;71.00;;;;;;213235;1286;22495;-59
2022/10/30 19:03:04;;;;;;;18.70;9.10;;;23.50;71.30;;;;;;213274;1288;25534;-60
2022/10/30 19:08:12;;;;;;;15.80;8.90;;;23.50;70.80;;;;;;213511;1288;25925;-60
2022/10/30 19:13:18;;;;;;;14.00;9.00;;;23.50;70.60;;;;;;213350;1288;22483;-56
2022/10/30 19:18:27;;;;;;;15.20;8.80;;;23.50;70.90;;;;;;213351;1286;22525;-58
2022/10/30 19:23:32;;;;;;;13.70;9.80;;;23.50;71.00;;;;;;213400;1288;22698;-60
2022/10/30 19:28:38;;;;;;;15.20;8.70;;;23.50;70.50;;;;;;213333;1286;25747;-59
2022/10/30 19:33:53;;;;;;;14.80;9.40;;;23.40;70.50;;;;;;213124;1280;24244;-60
2022/10/30 19:39:16;;;;;;;24.60;9.60;;;23.40;70.30;;;;;;213279;1287;24081;-60
2022/10/30 19:44:28;;;;;;;15.30;10.50;;;23.50;70.50;;;;;;213702;1287;25837;-59
2022/10/30 19:49:33;;;;;;;15.80;9.50;;;23.50;70.60;;;;;;213373;1284;24003;-59
2022/10/30 19:54:38;;;;;;;19.10;10.20;;;23.40;70.80;;;;;;213495;1296;22641;-59
2022/10/30 19:59:43;;;;;;;15.70;9.90;;;23.40;70.70;;;;;;213332;1284;24378;-58
2022/10/30 20:04:48;;;;;;;16.90;10.10;;;23.40;70.80;;;;;;213425;1284;22480;-59
2022/10/30 20:10:02;;;;;;;17.90;10.00;;;23.40;70.20;;;;;;213628;1284;25335;-57
2022/10/30 20:15:19;;;;;;;20.40;10.60;;;23.40;70.70;;;;;;213151;1280;22478;-57
2022/10/30 20:20:37;;;;;;;16.30;10.60;;;23.40;70.80;;;;;;213323;1280;25619;-57
2022/10/30 20:25:41;;;;;;;19.50;10.60;;;23.40;70.60;;;;;;213616;1293;24355;-59
2022/10/30 20:30:51;;;;;;;16.50;10.10;;;23.30;70.80;;;;;;213408;1310;25365;-60
2022/10/30 20:36:12;;;;;;;21.20;10.60;;;23.40;70.60;;;;;;213383;1288;22488;-58
2022/10/30 20:41:38;;;;;;;14.70;10.10;;;23.40;70.70;;;;;;213456;1288;22474;-58
2022/10/30 20:46:55;;;;;;;19.00;11.10;;;23.40;71.00;;;;;;213458;1281;24300;-59
2022/10/30 20:52:25;;;;;;;16.70;10.50;;;23.40;71.30;;;;;;213293;1280;22724;-58
2022/10/30 20:57:37;;;;;;;21.80;11.40;;;23.50;71.50;;;;;;213364;1279;25251;-57
2022/10/30 21:02:45;;;;;;;20.50;11.60;;;23.50;71.90;;;;;;213409;1283;22491;-58
2022/10/30 21:08:03;;;;;;;20.00;12.10;;;23.50;72.30;;;;;;213426;1286;24827;-58
2022/10/30 21:13:34;;;;;;;17.00;12.10;;;23.50;72.50;;;;;;213402;1284;22480;-59
2022/10/30 21:19:02;;;;;;;22.80;12.50;;;23.50;72.50;;;;;;213467;1286;25912;-60
2022/10/30 21:24:14;;;;;;;20.40;12.80;;;23.50;72.70;;;;;;213453;1283;23921;-60
2022/10/30 21:29:25;;;;;;;18.80;11.60;;;23.50;72.70;;;;;;213476;1283;24914;-58
2022/10/30 21:34:37;;;;;;;19.10;12.50;;;23.50;73.00;;;;;;213381;1287;23853;-60
2022/10/30 21:39:55;;;;;;;27.50;12.90;;;23.50;73.90;;;;;;213415;1290;22620;-59
2022/10/30 21:45:10;;;;;;;19.10;11.70;;;23.50;74.40;;;;;;213283;1286;22991;-59
2022/10/30 21:50:48;;;;;;;18.90;12.00;;;23.60;74.20;;;;;;213414;1280;22545;-59
2022/10/30 21:56:21;;;;;;;19.70;12.80;;;23.60;74.40;;;;;;213343;1280;25332;-56
2022/10/30 22:01:41;;;;;;;18.80;13.10;;;23.60;74.50;;;;;;213424;1288;22757;-58
2022/10/30 22:06:54;;;;;;;19.30;12.70;;;23.60;74.20;;;;;;213324;1286;22505;-58
2022/10/30 22:12:12;;;;;;;16.90;11.40;;;23.60;74.10;;;;;;213367;1283;24247;-59
2022/10/30 22:17:22;;;;;;;17.30;10.80;;;23.50;74.00;;;;;;213525;1290;24290;-58
2022/10/30 22:22:27;;;;;;;17.60;12.00;;;23.50;73.90;;;;;;213459;1286;22482;-60
2022/10/30 22:27:34;;;;;;;14.40;10.00;;;23.50;73.80;;;;;;213759;1284;24251;-59
2022/10/30 22:32:39;;;;;;;15.70;9.80;;;23.50;73.90;;;;;;213622;1288;25567;-57
2022/10/30 22:37:45;;;;;;;16.00;10.40;;;23.40;74.40;;;;;;213523;1286;25867;-59
2022/10/30 22:42:49;;;;;;;16.10;10.20;;;23.40;73.90;;;;;;213548;1281;22503;-58
2022/10/30 22:47:52;;;;;;;17.50;10.40;;;23.40;73.90;;;;;;213199;1283;23417;-57
2022/10/30 22:52:57;;;;;;;13.80;9.70;;;23.30;74.00;;;;;;213110;1282;25062;-59
2022/10/30 22:58:02;;;;;;;13.30;9.80;;;23.30;74.30;;;;;;219234;1293;26078;-56
2022/10/30 23:03:07;;;;;;;17.80;10.70;;;23.30;73.80;;;;;;214668;1283;24255;-59
2022/10/30 23:08:15;;;;;;;15.60;10.80;;;23.30;73.20;;;;;;213595;1280;23915;-60
2022/10/30 23:13:19;;;;;;;14.50;9.90;;;23.40;73.20;;;;;;213483;1286;24281;-59
2022/10/30 23:18:31;;;;;;;15.00;10.20;;;23.40;73.20;;;;;;213618;1283;24268;-59
2022/10/30 23:23:39;;;;;;;14.00;9.90;;;23.30;73.10;;;;;;213586;1280;25337;-59
2022/10/30 23:28:52;;;;;;;15.90;10.50;;;23.30;73.00;;;;;;213477;1280;23640;-59
2022/10/30 23:33:59;;;;;;;17.50;10.90;;;23.30;73.00;;;;;;213499;1286;25567;-58
2022/10/30 23:39:06;;;;;;;17.20;10.30;;;23.30;73.00;;;;;;213599;1287;24274;-59
2022/10/30 23:44:14;;;;;;;13.50;9.60;;;23.30;72.90;;;;;;213503;1287;22532;-59
2022/10/30 23:49:20;;;;;;;13.00;9.70;;;23.30;72.60;;;;;;213718;1288;22501;-59
2022/10/30 23:54:24;;;;;;;13.30;9.90;;;23.30;73.50;;;;;;213645;1310;25302;-60
2022/10/30 23:59:32;;;;;;;13.60;9.50;;;23.20;72.80;;;;;;213568;1280;22712;-60
